Time;durP1;ratioP1;P1;durP2;ratioP2;P2;SDS_P1;SDS_P2;PMS_P1;PMS_P2;Temp;Humidity;BMP_temperature;BMP_pressure;BME280_temperature;BME280_humidity;BME280_pressure;Samples;Min_cycle;Max_cycle;Signal;HPM_P1;HPM_P2
2021/06/12 00:02:12;;;;;;;11.68;4.20;;;;;;;;;;5050862;28;20028;-83
2021/06/12 00:04:37;;;;;;;7.43;3.75;;;;;;;;;;5065250;28;20020;-83
2021/06/12 00:07:02;;;;;;;6.40;3.70;;;;;;;;;;5052369;28;20028;-83
2021/06/12 00:09:28;;;;;;;6.78;3.90;;;;;;;;;;5052359;28;20036;-83
2021/06/12 00:11:53;;;;;;;6.55;3.70;;;;;;;;;;5050150;28;20463;-84
2021/06/12 00:14:18;;;;;;;10.02;3.63;;;;;;;;;;5050766;28;20013;-83
2021/06/12 00:16:44;;;;;;;4.82;2.90;;;;;;;;;;5050819;28;20013;-83
2021/06/12 00:19:09;;;;;;;9.90;3.13;;;;;;;;;;5051597;28;20020;-83
2021/06/12 00:21:37;;;;;;;6.82;2.70;;;;;;;;;;5050263;28;20476;-83
2021/06/12 00:24:03;;;;;;;6.80;2.90;;;;;;;;;;5051986;28;20051;-83
2021/06/12 00:26:28;;;;;;;4.82;2.95;;;;;;;;;;5050779;28;20021;-83
2021/06/12 00:28:53;;;;;;;12.00;3.00;;;;;;;;;;5050222;28;20024;-83
2021/06/12 00:31:18;;;;;;;10.05;2.78;;;;;;;;;;5050651;28;20219;-83
2021/06/12 00:33:44;;;;;;;6.93;2.67;;;;;;;;;;5052022;28;20017;-83
2021/06/12 00:36:09;;;;;;;4.60;2.60;;;;;;;;;;5050575;28;20021;-83
2021/06/12 00:38:35;;;;;;;5.72;2.40;;;;;;;;;;5050372;28;20021;-83
2021/06/12 00:41:00;;;;;;;6.47;2.53;;;;;;;;;;5049997;28;20027;-84
2021/06/12 00:43:25;;;;;;;4.90;2.53;;;;;;;;;;5050601;28;20110;-83
2021/06/12 00:45:50;;;;;;;5.25;2.53;;;;;;;;;;5050445;28;20028;-83
2021/06/12 00:48:16;;;;;;;6.65;2.45;;;;;;;;;;5050661;28;20013;-83
2021/06/12 00:50:41;;;;;;;3.60;2.17;;;;;;;;;;5050592;28;20515;-83
2021/06/12 00:53:06;;;;;;;5.00;2.60;;;;;;;;;;5050213;28;20020;-83
2021/06/12 00:55:32;;;;;;;4.65;1.90;;;;;;;;;;5050055;28;20025;-83
2021/06/12 00:57:57;;;;;;;4.65;2.30;;;;;;;;;;5051627;28;20466;-83
2021/06/12 01:00:23;;;;;;;6.07;1.98;;;;;;;;;;5051767;28;20045;-83
2021/06/12 01:02:48;;;;;;;4.50;1.75;;;;;;;;;;5050272;28;20021;-83
2021/06/12 01:05:14;;;;;;;6.07;2.03;;;;;;;;;;5050472;28;20021;-83
2021/06/12 01:07:40;;;;;;;6.00;2.00;;;;;;;;;;5050342;28;20021;-83
2021/06/12 01:10:06;;;;;;;5.90;2.53;;;;;;;;;;5050607;28;20389;-83
2021/06/12 01:12:45;;;;;;;9.30;2.30;;;;;;;;;;5051790;28;20032;-83
2021/06/12 01:15:11;;;;;;;4.35;2.30;;;;;;;;;;5051004;28;20029;-83
2021/06/12 01:17:42;;;;;;;8.05;1.98;;;;;;;;;;5049910;28;20112;-84
2021/06/12 01:20:11;;;;;;;3.60;1.93;;;;;;;;;;5050104;28;20059;-83
2021/06/12 01:22:45;;;;;;;3.70;2.17;;;;;;;;;;5050228;28;20788;-83
2021/06/12 01:25:29;;;;;;;5.53;1.83;;;;;;;;;;5053290;28;20484;-83
2021/06/12 01:28:00;;;;;;;6.72;1.95;;;;;;;;;;5053402;28;20024;-83
2021/06/12 01:30:29;;;;;;;2.67;1.65;;;;;;;;;;5054780;28;20079;-83
2021/06/12 01:32:57;;;;;;;4.75;1.83;;;;;;;;;;5053854;28;20125;-83
2021/06/12 01:35:42;;;;;;;9.30;1.70;;;;;;;;;;5053920;28;20020;-83
2021/06/12 01:38:09;;;;;;;4.40;1.77;;;;;;;;;;5041786;28;20100;-83
2021/06/12 01:40:36;;;;;;;3.75;1.88;;;;;;;;;;5053578;28;20477;-83
2021/06/12 01:43:02;;;;;;;6.15;1.90;;;;;;;;;;5039792;28;20111;-83
2021/06/12 01:45:28;;;;;;;3.35;1.88;;;;;;;;;;5053695;28;20154;-83
2021/06/12 01:47:54;;;;;;;3.30;1.50;;;;;;;;;;5054836;28;20062;-84
2021/06/12 01:50:20;;;;;;;4.45;1.70;;;;;;;;;;5053512;28;20644;-83
2021/06/12 01:52:46;;;;;;;8.02;2.10;;;;;;;;;;5053087;28;20530;-83
2021/06/12 01:55:12;;;;;;;6.70;1.88;;;;;;;;;;5054768;28;20092;-84
2021/06/12 01:57:40;;;;;;;5.88;2.42;;;;;;;;;;5053170;28;20029;-83
2021/06/12 02:00:05;;;;;;;2.95;1.80;;;;;;;;;;5053312;28;20384;-83
2021/06/12 02:02:31;;;;;;;3.33;1.85;;;;;;;;;;5054486;28;20028;-83
2021/06/12 02:04:57;;;;;;;5.05;2.05;;;;;;;;;;5053017;28;20445;-83
2021/06/12 02:07:23;;;;;;;3.55;1.67;;;;;;;;;;5053125;28;20554;-83
2021/06/12 02:09:51;;;;;;;7.32;1.77;;;;;;;;;;5053640;28;20052;-83
2021/06/12 02:12:16;;;;;;;6.28;2.00;;;;;;;;;;5052849;28;20017;-83
2021/06/12 02:14:42;;;;;;;5.03;2.08;;;;;;;;;;5053193;28;20032;-83
2021/06/12 02:17:08;;;;;;;4.53;2.58;;;;;;;;;;5052624;28;20017;-83
2021/06/12 02:19:37;;;;;;;4.22;2.03;;;;;;;;;;5052747;28;20052;-83
2021/06/12 02:22:03;;;;;;;4.22;1.98;;;;;;;;;;5050607;28;20065;-83
2021/06/12 02:24:29;;;;;;;3.70;2.20;;;;;;;;;;5052852;28;20021;-84
2021/06/12 02:26:54;;;;;;;3.90;2.10;;;;;;;;;;5052690;28;20589;-83
2021/06/12 02:29:20;;;;;;;4.32;2.60;;;;;;;;;;5052596;28;20017;-83
2021/06/12 02:31:52;;;;;;;5.40;2.10;;;;;;;;;;5053757;28;20361;-83
2021/06/12 02:34:17;;;;;;;3.90;2.00;;;;;;;;;;5052632;28;20096;-84
2021/06/12 02:36:43;;;;;;;6.53;2.28;;;;;;;;;;5051528;28;20440;-84
2021/06/12 02:39:09;;;;;;;6.10;2.42;;;;;;;;;;5052336;28;20112;-83
2021/06/12 02:41:34;;;;;;;6.85;2.00;;;;;;;;;;5052295;28;20502;-83
2021/06/12 02:43:59;;;;;;;5.85;2.67;;;;;;;;;;5052599;28;20496;-83
2021/06/12 02:46:27;;;;;;;6.82;2.30;;;;;;;;;;5053422;28;20642;-83
2021/06/12 02:48:56;;;;;;;5.78;2.08;;;;;;;;;;5085892;28;20013;-84
2021/06/12 02:51:22;;;;;;;6.85;2.80;;;;;;;;;;5051916;28;20051;-83
2021/06/12 02:53:48;;;;;;;4.13;2.38;;;;;;;;;;5053740;28;20112;-83
2021/06/12 02:56:15;;;;;;;5.03;2.30;;;;;;;;;;5052122;28;20079;-83
2021/06/12 02:58:40;;;;;;;5.78;2.63;;;;;;;;;;5053544;28;20017;-83
2021/06/12 03:01:06;;;;;;;8.52;2.85;;;;;;;;;;5053331;28;20023;-83
2021/06/12 03:03:33;;;;;;;4.70;2.60;;;;;;;;;;5051871;28;20020;-83
2021/06/12 03:05:58;;;;;;;6.50;3.13;;;;;;;;;;5052047;28;20040;-83
2021/06/12 03:08:25;;;;;;;6.53;3.25;;;;;;;;;;5051685;28;20040;-83
2021/06/12 03:10:51;;;;;;;7.57;2.80;;;;;;;;;;5051940;28;20021;-83
2021/06/12 03:13:19;;;;;;;8.32;3.08;;;;;;;;;;5051754;28;20021;-83
2021/06/12 03:15:45;;;;;;;8.52;3.63;;;;;;;;;;5052847;28;20017;-83
2021/06/12 03:18:11;;;;;;;5.13;3.00;;;;;;;;;;5051449;28;20025;-83
2021/06/12 03:20:36;;;;;;;7.78;3.13;;;;;;;;;;5050228;28;20028;-83
2021/06/12 03:23:03;;;;;;;7.25;3.30;;;;;;;;;;5049942;28;20017;-83
2021/06/12 03:25:28;;;;;;;7.53;4.13;;;;;;;;;;5049238;28;20480;-83
2021/06/12 03:27:55;;;;;;;9.40;3.70;;;;;;;;;;5049874;28;20024;-83
2021/06/12 03:30:21;;;;;;;10.80;4.38;;;;;;;;;;5049838;28;20096;-83
2021/06/12 03:32:47;;;;;;;6.70;4.07;;;;;;;;;;5050058;28;20095;-83
2021/06/12 03:35:12;;;;;;;8.77;4.05;;;;;;;;;;5050179;28;20049;-83
2021/06/12 03:37:39;;;;;;;7.80;4.30;;;;;;;;;;5049444;28;20017;-82
2021/06/12 03:40:05;;;;;;;6.95;3.92;;;;;;;;;;5051640;28;20017;-83
2021/06/12 03:42:30;;;;;;;7.53;4.18;;;;;;;;;;5049998;28;20071;-83
2021/06/12 03:44:58;;;;;;;7.70;3.70;;;;;;;;;;5049797;28;20032;-83
2021/06/12 03:47:24;;;;;;;6.35;3.72;;;;;;;;;;5049781;28;20021;-83
2021/06/12 03:49:50;;;;;;;9.93;3.50;;;;;;;;;;5052003;28;20024;-83
2021/06/12 03:52:15;;;;;;;8.05;4.05;;;;;;;;;;5051008;28;20472;-83
2021/06/12 03:54:41;;;;;;;7.80;4.20;;;;;;;;;;5050732;28;20016;-83
2021/06/12 03:57:06;;;;;;;8.95;4.05;;;;;;;;;;5050577;28;20036;-83
2021/06/12 03:59:32;;;;;;;9.13;4.22;;;;;;;;;;5050870;28;20033;-83
2021/06/12 04:01:57;;;;;;;8.95;4.40;;;;;;;;;;5050995;28;20425;-83
2021/06/12 04:04:24;;;;;;;8.45;4.45;;;;;;;;;;5084607;28;20484;-83
2021/06/12 04:06:50;;;;;;;12.10;4.72;;;;;;;;;;5050040;28;20452;-83
2021/06/12 04:09:15;;;;;;;8.95;4.68;;;;;;;;;;5050882;28;20025;-84
2021/06/12 04:11:41;;;;;;;11.82;5.00;;;;;;;;;;5050644;28;20028;-83
2021/06/12 04:14:06;;;;;;;12.15;5.85;;;;;;;;;;5050604;28;20024;-83
2021/06/12 04:16:31;;;;;;;11.13;4.93;;;;;;;;;;5050621;28;20040;-83
2021/06/12 04:18:56;;;;;;;8.27;4.90;;;;;;;;;;5051732;28;20486;-83
2021/06/12 04:21:22;;;;;;;9.98;4.70;;;;;;;;;;5050363;28;20024;-83
2021/06/12 04:23:47;;;;;;;8.27;4.20;;;;;;;;;;5050516;28;20051;-83
2021/06/12 04:26:12;;;;;;;7.90;4.40;;;;;;;;;;5051433;28;20443;-83
2021/06/12 04:28:37;;;;;;;9.88;4.40;;;;;;;;;;5051931;28;20108;-83
2021/06/12 04:31:03;;;;;;;12.80;5.60;;;;;;;;;;5050371;28;20067;-83
2021/06/12 04:33:28;;;;;;;12.20;5.95;;;;;;;;;;5050533;28;20053;-84
2021/06/12 04:35:53;;;;;;;12.32;6.22;;;;;;;;;;5051193;28;20017;-83
2021/06/12 04:38:18;;;;;;;12.55;6.32;;;;;;;;;;5050319;28;20009;-83
2021/06/12 04:40:43;;;;;;;9.98;5.40;;;;;;;;;;5051306;28;20187;-83
2021/06/12 04:43:09;;;;;;;11.65;5.50;;;;;;;;;;5050550;28;20025;-83
2021/06/12 04:45:35;;;;;;;12.15;6.70;;;;;;;;;;5050246;28;20079;-83
2021/06/12 04:48:01;;;;;;;13.82;7.45;;;;;;;;;;5050392;28;20029;-83
2021/06/12 04:50:28;;;;;;;17.05;7.20;;;;;;;;;;5050601;28;20029;-83
2021/06/12 04:52:53;;;;;;;13.13;7.13;;;;;;;;;;5051510;28;20029;-83
2021/06/12 04:55:18;;;;;;;22.63;10.00;;;;;;;;;;5050458;28;20029;-84
2021/06/12 04:57:43;;;;;;;19.23;8.73;;;;;;;;;;5050281;28;20028;-83
2021/06/12 05:00:10;;;;;;;21.38;10.30;;;;;;;;;;5053693;28;20024;-83
2021/06/12 05:02:35;;;;;;;26.05;11.52;;;;;;;;;;5053735;28;20499;-84
2021/06/12 05:05:01;;;;;;;31.05;13.20;;;;;;;;;;5054212;28;20033;-83
2021/06/12 05:07:26;;;;;;;29.02;13.75;;;;;;;;;;5054161;28;20025;-83
2021/06/12 05:09:51;;;;;;;28.35;12.45;;;;;;;;;;5055399;28;20055;-83
2021/06/12 05:12:16;;;;;;;34.75;15.00;;;;;;;;;;5054114;28;20051;-84
2021/06/12 05:14:44;;;;;;;29.58;14.63;;;;;;;;;;5054085;28;20024;-83
2021/06/12 05:17:12;;;;;;;34.65;16.27;;;;;;;;;;5053768;28;20020;-83
2021/06/12 05:19:37;;;;;;;38.45;16.27;;;;;;;;;;5054026;28;20384;-83
2021/06/12 05:22:02;;;;;;;38.65;16.83;;;;;;;;;;5053384;28;20025;-83
2021/06/12 05:24:28;;;;;;;40.72;18.52;;;;;;;;;;5053920;28;20028;-83
2021/06/12 05:26:53;;;;;;;41.97;18.90;;;;;;;;;;5053472;28;20021;-84
2021/06/12 05:29:18;;;;;;;40.97;17.67;;;;;;;;;;5055095;28;20040;-83
2021/06/12 05:31:43;;;;;;;48.97;22.45;;;;;;;;;;5053682;28;20028;-83
2021/06/12 05:34:08;;;;;;;40.17;19.17;;;;;;;;;;5053562;28;20017;-83
2021/06/12 05:36:34;;;;;;;39.72;19.08;;;;;;;;;;5052934;28;20383;-84
2021/06/12 05:38:59;;;;;;;44.95;20.00;;;;;;;;;;5053670;28;20017;-83
2021/06/12 05:41:24;;;;;;;40.95;19.25;;;;;;;;;;5053459;28;20421;-83
2021/06/12 05:43:49;;;;;;;40.63;18.60;;;;;;;;;;5053621;28;20028;-83
2021/06/12 05:46:15;;;;;;;39.60;18.08;;;;;;;;;;5052651;28;20017;-83
2021/06/12 05:48:40;;;;;;;46.40;17.70;;;;;;;;;;5053276;28;20111;-85
2021/06/12 05:51:05;;;;;;;43.38;19.58;;;;;;;;;;5051993;28;20100;-85
2021/06/12 05:53:30;;;;;;;47.00;21.05;;;;;;;;;;5052947;28;20024;-84
2021/06/12 05:55:56;;;;;;;49.83;21.70;;;;;;;;;;5052945;28;20021;-84
2021/06/12 05:58:21;;;;;;;52.90;22.45;;;;;;;;;;5053091;28;20017;-84
2021/06/12 06:00:46;;;;;;;50.28;21.13;;;;;;;;;;5053246;28;20646;-84
2021/06/12 06:03:11;;;;;;;45.72;21.88;;;;;;;;;;5053795;28;20021;-84
2021/06/12 06:05:37;;;;;;;55.95;23.73;;;;;;;;;;5052854;28;20021;-84
2021/06/12 06:08:02;;;;;;;54.00;22.90;;;;;;;;;;5052565;28;20490;-84
2021/06/12 06:10:27;;;;;;;51.40;24.98;;;;;;;;;;5053148;28;20487;-85
2021/06/12 06:12:52;;;;;;;52.10;23.08;;;;;;;;;;5052466;28;20056;-84
2021/06/12 06:15:18;;;;;;;51.50;23.77;;;;;;;;;;5052722;28;20016;-85
2021/06/12 06:17:43;;;;;;;55.72;24.92;;;;;;;;;;5051871;28;20052;-85
2021/06/12 06:20:09;;;;;;;52.13;22.80;;;;;;;;;;5051912;28;20036;-85
2021/06/12 06:22:34;;;;;;;45.92;22.00;;;;;;;;;;5053990;28;20024;-84
2021/06/12 06:25:00;;;;;;;52.38;23.27;;;;;;;;;;5052502;28;20150;-85
2021/06/12 06:27:25;;;;;;;45.85;22.27;;;;;;;;;;5052650;28;20071;-85
2021/06/12 06:29:50;;;;;;;47.55;24.08;;;;;;;;;;5052551;28;20111;-84
2021/06/12 06:32:15;;;;;;;47.08;22.67;;;;;;;;;;5052734;28;20025;-84
2021/06/12 06:34:41;;;;;;;51.35;23.13;;;;;;;;;;5051995;28;20039;-85
2021/06/12 06:37:06;;;;;;;47.47;21.45;;;;;;;;;;5052514;28;20017;-85
2021/06/12 06:39:31;;;;;;;49.67;22.45;;;;;;;;;;5053510;28;20028;-84
2021/06/12 06:41:57;;;;;;;48.60;22.38;;;;;;;;;;5053948;28;20383;-85
2021/06/12 06:44:22;;;;;;;53.20;21.67;;;;;;;;;;5051902;28;20531;-84
2021/06/12 06:46:47;;;;;;;45.45;22.85;;;;;;;;;;5053297;28;20074;-85
2021/06/12 06:49:13;;;;;;;44.70;22.05;;;;;;;;;;5052064;28;20503;-84
2021/06/12 06:51:38;;;;;;;40.13;19.65;;;;;;;;;;5051538;28;20159;-85
2021/06/12 06:54:03;;;;;;;53.70;21.58;;;;;;;;;;5051815;28;20044;-85
2021/06/12 06:56:28;;;;;;;44.72;21.20;;;;;;;;;;5058287;28;20028;-84
2021/06/12 06:58:54;;;;;;;45.15;22.48;;;;;;;;;;5049030;28;20100;-85
2021/06/12 07:01:19;;;;;;;48.45;22.92;;;;;;;;;;5047498;28;20369;-85
2021/06/12 07:03:44;;;;;;;39.55;19.73;;;;;;;;;;5052161;28;20013;-84
2021/06/12 07:06:09;;;;;;;42.50;20.58;;;;;;;;;;5051485;28;20056;-85
2021/06/12 07:08:34;;;;;;;49.90;23.85;;;;;;;;;;5050161;28;20049;-85
2021/06/12 07:11:01;;;;;;;45.78;21.13;;;;;;;;;;5051342;28;20025;-84
2021/06/12 07:13:26;;;;;;;47.03;23.80;;;;;;;;;;5047930;28;20032;-85
2021/06/12 07:15:51;;;;;;;51.33;24.85;;;;;;;;;;5050974;28;20047;-85
2021/06/12 07:18:17;;;;;;;53.28;24.08;;;;;;;;;;5050827;28;20021;-84
2021/06/12 07:20:45;;;;;;;50.58;24.48;;;;;;;;;;5047893;28;20067;-85
2021/06/12 07:23:11;;;;;;;49.63;23.70;;;;;;;;;;5051250;28;20032;-84
2021/06/12 07:25:36;;;;;;;45.22;22.02;;;;;;;;;;5052923;28;20025;-84
2021/06/12 07:28:01;;;;;;;48.97;22.90;;;;;;;;;;5052428;28;20495;-85
2021/06/12 07:30:27;;;;;;;48.95;22.42;;;;;;;;;;5049825;28;20029;-85
2021/06/12 07:32:52;;;;;;;46.65;22.15;;;;;;;;;;5051320;28;20013;-84
2021/06/12 07:35:17;;;;;;;55.88;23.52;;;;;;;;;;5052562;28;20021;-85
2021/06/12 07:37:42;;;;;;;48.72;23.55;;;;;;;;;;5051152;28;20047;-85
2021/06/12 07:40:08;;;;;;;53.30;25.95;;;;;;;;;;5084142;28;20021;-85
2021/06/12 07:42:33;;;;;;;48.55;23.25;;;;;;;;;;5050976;28;20039;-85
2021/06/12 07:44:58;;;;;;;47.50;24.83;;;;;;;;;;5052383;28;20040;-85
2021/06/12 07:47:24;;;;;;;53.90;25.95;;;;;;;;;;5050981;28;20013;-85
2021/06/12 07:49:49;;;;;;;54.42;24.40;;;;;;;;;;5050697;28;20476;-85
2021/06/12 07:52:14;;;;;;;52.38;26.48;;;;;;;;;;5046622;28;20549;-86
2021/06/12 07:54:39;;;;;;;47.70;24.80;;;;;;;;;;5050450;28;20526;-87
2021/06/12 07:57:05;;;;;;;50.20;26.33;;;;;;;;;;5050474;28;20049;-87
2021/06/12 07:59:30;;;;;;;58.33;28.65;;;;;;;;;;5083913;28;20533;-87
2021/06/12 08:01:55;;;;;;;50.35;25.88;;;;;;;;;;5050728;28;20503;-87
2021/06/12 08:04:21;;;;;;;55.22;28.05;;;;;;;;;;5050785;28;20094;-87
2021/06/12 08:06:46;;;;;;;51.22;26.52;;;;;;;;;;5050350;28;20017;-87
2021/06/12 08:09:11;;;;;;;55.13;25.55;;;;;;;;;;5051797;28;20021;-87
2021/06/12 08:11:36;;;;;;;49.40;24.50;;;;;;;;;;5050099;28;20060;-87
2021/06/12 08:14:02;;;;;;;57.05;27.20;;;;;;;;;;5050280;28;20486;-87
2021/06/12 08:16:27;;;;;;;52.20;25.65;;;;;;;;;;5050786;28;20104;-87
2021/06/12 08:18:52;;;;;;;55.72;26.10;;;;;;;;;;5050590;28;20143;-85
2021/06/12 08:21:18;;;;;;;53.20;26.65;;;;;;;;;;5050727;28;20025;-84
2021/06/12 08:23:43;;;;;;;47.35;23.77;;;;;;;;;;5050554;28;20028;-84
2021/06/12 08:26:08;;;;;;;51.53;25.20;;;;;;;;;;5050417;28;20032;-84
2021/06/12 08:28:34;;;;;;;49.28;24.90;;;;;;;;;;5051473;28;20021;-84
2021/06/12 08:30:59;;;;;;;53.42;26.45;;;;;;;;;;5050361;28;20017;-84
2021/06/12 08:33:24;;;;;;;42.88;20.85;;;;;;;;;;5050502;28;20051;-84
2021/06/12 08:35:50;;;;;;;53.50;28.15;;;;;;;;;;5053941;28;20017;-83
2021/06/12 08:38:15;;;;;;;49.75;26.73;;;;;;;;;;5054428;28;20079;-84
2021/06/12 08:40:40;;;;;;;56.38;26.27;;;;;;;;;;5055725;28;20013;-84
2021/06/12 08:43:06;;;;;;;49.40;25.25;;;;;;;;;;5054482;28;20361;-84
2021/06/12 08:45:32;;;;;;;55.70;25.73;;;;;;;;;;5054620;28;20017;-83
2021/06/12 08:47:57;;;;;;;48.10;24.50;;;;;;;;;;5052983;28;20021;-83
2021/06/12 08:50:23;;;;;;;58.03;27.73;;;;;;;;;;5053379;28;20025;-84
2021/06/12 08:52:49;;;;;;;49.92;23.40;;;;;;;;;;5053917;28;20121;-84
2021/06/12 08:55:14;;;;;;;50.22;26.13;;;;;;;;;;5055102;28;20092;-84
2021/06/12 08:57:40;;;;;;;56.22;27.58;;;;;;;;;;5054391;28;20116;-84
2021/06/12 09:00:06;;;;;;;56.42;30.23;;;;;;;;;;5054122;28;20494;-84
2021/06/12 09:02:50;;;;;;;52.55;26.88;;;;;;;;;;5053170;28;20021;-83
2021/06/12 09:05:15;;;;;;;60.67;31.70;;;;;;;;;;5047106;28;20107;-83
2021/06/12 09:07:40;;;;;;;53.90;28.20;;;;;;;;;;5053045;28;20107;-84
2021/06/12 09:10:06;;;;;;;51.60;27.20;;;;;;;;;;5053344;28;20124;-83
2021/06/12 09:12:47;;;;;;;49.80;24.27;;;;;;;;;;5053740;28;20020;-83
2021/06/12 09:15:14;;;;;;;59.60;29.37;;;;;;;;;;5053246;28;20024;-84
2021/06/12 09:17:57;;;;;;;52.42;29.52;;;;;;;;;;5052827;28;20075;-83
2021/06/12 09:20:28;;;;;;;55.60;26.80;;;;;;;;;;5054563;28;20679;-84
2021/06/12 09:23:07;;;;;;;59.35;28.95;;;;;;;;;;5054570;28;20471;-84
2021/06/12 09:25:39;;;;;;;61.38;28.70;;;;;;;;;;5052883;28;20024;-83
2021/06/12 09:28:05;;;;;;;51.63;29.08;;;;;;;;;;5053997;28;20361;-84
2021/06/12 09:30:30;;;;;;;46.83;23.92;;;;;;;;;;5052605;28;20025;-84
2021/06/12 09:32:55;;;;;;;55.22;28.15;;;;;;;;;;5053664;28;20040;-84
2021/06/12 09:35:28;;;;;;;55.38;26.13;;;;;;;;;;5053394;28;20059;-84
2021/06/12 09:37:53;;;;;;;55.45;32.05;;;;;;;;;;5053154;28;20024;-84
2021/06/12 09:40:21;;;;;;;58.20;28.98;;;;;;;;;;5053109;28;20025;-84
2021/06/12 09:42:47;;;;;;;54.20;26.90;;;;;;;;;;5054690;28;20471;-84
2021/06/12 09:45:16;;;;;;;59.08;31.15;;;;;;;;;;5052776;28;20031;-84
2021/06/12 09:47:42;;;;;;;51.97;24.90;;;;;;;;;;5052690;28;20029;-84
2021/06/12 09:50:08;;;;;;;53.17;26.38;;;;;;;;;;5052769;28;20029;-84
2021/06/12 09:52:44;;;;;;;54.88;27.02;;;;;;;;;;5052719;28;20031;-84
2021/06/12 09:55:19;;;;;;;52.33;28.42;;;;;;;;;;5052732;28;20021;-84
2021/06/12 09:57:48;;;;;;;56.80;31.42;;;;;;;;;;5052896;28;20032;-84
2021/06/12 10:00:14;;;;;;;58.63;31.80;;;;;;;;;;5052863;28;20019;-84
2021/06/12 10:02:45;;;;;;;54.90;28.85;;;;;;;;;;5054236;28;20112;-84
2021/06/12 10:05:12;;;;;;;57.03;31.42;;;;;;;;;;5053474;28;20017;-84
2021/06/12 10:07:37;;;;;;;57.10;32.10;;;;;;;;;;5086527;28;20025;-84
2021/06/12 10:10:07;;;;;;;58.40;30.17;;;;;;;;;;5053484;28;20025;-84
2021/06/12 10:12:34;;;;;;;56.17;30.50;;;;;;;;;;5052908;28;20033;-84
2021/06/12 10:15:00;;;;;;;47.03;29.52;;;;;;;;;;5052400;28;20044;-84
2021/06/12 10:17:26;;;;;;;51.10;30.42;;;;;;;;;;5054295;28;20435;-84
2021/06/12 10:19:52;;;;;;;55.05;31.65;;;;;;;;;;5053311;28;20044;-84
2021/06/12 10:22:18;;;;;;;54.33;31.20;;;;;;;;;;5052305;28;20051;-84
2021/06/12 10:24:43;;;;;;;51.47;29.38;;;;;;;;;;5052297;28;20025;-84
2021/06/12 10:27:09;;;;;;;54.40;32.00;;;;;;;;;;5052229;28;20066;-84
2021/06/12 10:29:35;;;;;;;52.22;29.65;;;;;;;;;;5052268;28;20468;-84
2021/06/12 10:32:01;;;;;;;53.80;29.65;;;;;;;;;;5051916;28;20093;-84
2021/06/12 10:34:28;;;;;;;53.58;27.92;;;;;;;;;;5053295;28;20021;-84
2021/06/12 10:37:02;;;;;;;49.30;26.48;;;;;;;;;;5052375;28;20048;-84
2021/06/12 10:39:28;;;;;;;52.42;29.13;;;;;;;;;;5052257;28;20627;-84
2021/06/12 10:42:09;;;;;;;50.80;27.58;;;;;;;;;;5052011;28;20361;-84
2021/06/12 10:44:35;;;;;;;46.50;25.08;;;;;;;;;;5049916;28;20170;-84
2021/06/12 10:47:00;;;;;;;47.15;26.05;;;;;;;;;;5051892;28;20503;-84
2021/06/12 10:49:28;;;;;;;46.67;26.95;;;;;;;;;;5053652;28;20025;-84
2021/06/12 10:51:54;;;;;;;45.92;27.02;;;;;;;;;;5053509;28;20025;-84
2021/06/12 10:54:23;;;;;;;45.83;25.08;;;;;;;;;;5052312;28;20017;-84
2021/06/12 10:56:56;;;;;;;33.97;21.92;;;;;;;;;;5051066;28;20009;-84
2021/06/12 10:59:36;;;;;;;40.20;20.90;;;;;;;;;;5050419;28;20103;-84
2021/06/12 11:02:10;;;;;;;36.05;21.75;;;;;;;;;;5051057;28;20083;-84
2021/06/12 11:04:43;;;;;;;34.30;18.77;;;;;;;;;;5050715;28;20160;-84
2021/06/12 11:07:24;;;;;;;32.25;19.88;;;;;;;;;;5050998;28;20388;-83
2021/06/12 11:09:50;;;;;;;41.75;21.15;;;;;;;;;;5050413;28;20052;-83
2021/06/12 11:12:15;;;;;;;31.58;18.95;;;;;;;;;;5051071;28;20098;-84
2021/06/12 11:14:40;;;;;;;33.33;19.43;;;;;;;;;;5053214;28;20464;-84
2021/06/12 11:17:06;;;;;;;26.48;18.02;;;;;;;;;;5051330;28;20246;-84
2021/06/12 11:19:32;;;;;;;34.25;16.33;;;;;;;;;;5079423;28;20071;-84
2021/06/12 11:22:16;;;;;;;25.77;15.35;;;;;;;;;;5050397;28;20107;-84
2021/06/12 11:24:43;;;;;;;23.75;14.32;;;;;;;;;;5084870;28;20397;-84
2021/06/12 11:27:21;;;;;;;22.75;13.35;;;;;;;;;;5052312;28;20444;-84
2021/06/12 11:30:04;;;;;;;19.42;12.27;;;;;;;;;;5052659;28;20024;-84
2021/06/12 11:35:57;;;;;;;18.13;9.93;;;;;;;;;;5058679;28;20060;-83
2021/06/12 11:38:35;;;;;;;14.55;8.70;;;;;;;;;;5049707;28;20045;-84
2021/06/12 11:41:02;;;;;;;16.08;7.88;;;;;;;;;;5081586;28;20074;-84
2021/06/12 11:43:36;;;;;;;17.05;7.45;;;;;;;;;;5053118;28;20029;-84
2021/06/12 11:46:05;;;;;;;12.27;6.95;;;;;;;;;;5052912;28;20110;-84
2021/06/12 11:48:35;;;;;;;12.93;6.28;;;;;;;;;;5053235;28;20024;-84
2021/06/12 11:51:10;;;;;;;13.10;6.07;;;;;;;;;;5051321;28;20539;-84
2021/06/12 11:53:35;;;;;;;14.80;4.30;;;;;;;;;;5051214;28;20048;-84
2021/06/12 11:56:01;;;;;;;8.23;4.80;;;;;;;;;;5051385;28;20053;-83
2021/06/12 11:58:26;;;;;;;11.45;4.43;;;;;;;;;;5051626;28;20085;-84
2021/06/12 12:00:51;;;;;;;11.70;4.18;;;;;;;;;;5051559;28;20096;-84
2021/06/12 12:03:17;;;;;;;5.80;2.90;;;;;;;;;;5083717;28;20302;-84
2021/06/12 12:05:44;;;;;;;10.38;3.45;;;;;;;;;;5051534;28;20017;-84
2021/06/12 12:08:13;;;;;;;10.85;3.13;;;;;;;;;;5051065;28;20480;-84
2021/06/12 12:10:40;;;;;;;7.78;3.22;;;;;;;;;;5052749;28;20075;-83
2021/06/12 12:13:05;;;;;;;9.23;3.40;;;;;;;;;;5050125;28;20023;-82
2021/06/12 12:15:33;;;;;;;10.43;2.83;;;;;;;;;;5050667;28;20017;-83
2021/06/12 12:18:06;;;;;;;7.63;3.00;;;;;;;;;;5051172;28;20419;-83
2021/06/12 12:20:36;;;;;;;6.95;3.00;;;;;;;;;;5051587;28;20130;-83
2021/06/12 12:23:02;;;;;;;11.40;3.00;;;;;;;;;;5050998;28;20036;-83
2021/06/12 12:25:28;;;;;;;6.50;2.80;;;;;;;;;;5050607;28;20155;-83
2021/06/12 12:28:06;;;;;;;7.72;2.97;;;;;;;;;;5049982;28;20067;-83
2021/06/12 12:30:31;;;;;;;5.82;2.85;;;;;;;;;;5049975;28;20029;-82
2021/06/12 12:33:06;;;;;;;7.25;3.08;;;;;;;;;;5050057;28;20025;-83
2021/06/12 12:35:32;;;;;;;8.55;3.00;;;;;;;;;;5049717;28;20025;-83
2021/06/12 12:38:09;;;;;;;8.15;2.92;;;;;;;;;;5047223;28;20024;-82
2021/06/12 12:40:34;;;;;;;9.05;3.70;;;;;;;;;;5050946;28;20021;-83
2021/06/12 12:43:00;;;;;;;7.13;2.88;;;;;;;;;;5083939;28;20029;-83
2021/06/12 12:45:26;;;;;;;8.82;2.83;;;;;;;;;;5050718;28;20067;-84
2021/06/12 12:47:51;;;;;;;6.63;2.58;;;;;;;;;;5050684;28;20025;-83
2021/06/12 12:50:18;;;;;;;4.68;2.20;;;;;;;;;;5050287;28;20108;-83
2021/06/12 12:52:43;;;;;;;5.60;2.47;;;;;;;;;;5051654;28;20025;-83
2021/06/12 12:55:09;;;;;;;7.85;2.75;;;;;;;;;;5049874;28;20121;-83
2021/06/12 12:57:42;;;;;;;7.78;2.55;;;;;;;;;;5051687;28;20025;-84
2021/06/12 13:00:17;;;;;;;8.70;2.65;;;;;;;;;;5046964;28;20025;-84
2021/06/12 13:02:42;;;;;;;3.67;2.05;;;;;;;;;;5051325;28;20035;-84
2021/06/12 13:05:13;;;;;;;6.10;2.33;;;;;;;;;;5050039;28;20112;-83
2021/06/12 13:07:38;;;;;;;4.82;2.20;;;;;;;;;;5050690;28;20033;-84
2021/06/12 13:10:05;;;;;;;4.53;2.30;;;;;;;;;;5050119;28;20017;-84
2021/06/12 13:12:31;;;;;;;7.07;2.00;;;;;;;;;;5054708;28;20060;-83
2021/06/12 13:14:58;;;;;;;6.50;2.50;;;;;;;;;;5050375;28;20017;-83
2021/06/12 13:17:24;;;;;;;11.38;2.55;;;;;;;;;;5051879;28;20009;-83
2021/06/12 13:19:49;;;;;;;9.52;2.72;;;;;;;;;;5051345;28;20113;-83
2021/06/12 13:22:31;;;;;;;5.88;2.95;;;;;;;;;;5053778;28;20021;-83
2021/06/12 13:25:05;;;;;;;7.38;3.00;;;;;;;;;;5054179;28;20480;-83
2021/06/12 13:27:31;;;;;;;8.02;2.95;;;;;;;;;;5053847;28;20025;-83
2021/06/12 13:29:56;;;;;;;7.68;2.17;;;;;;;;;;5053648;28;20021;-83
2021/06/12 13:32:25;;;;;;;8.63;2.33;;;;;;;;;;5053824;28;20391;-83
2021/06/12 13:34:50;;;;;;;9.88;2.78;;;;;;;;;;5053115;28;20044;-84
2021/06/12 13:37:16;;;;;;;6.85;2.38;;;;;;;;;;5052620;28;20021;-84
2021/06/12 13:39:49;;;;;;;5.20;2.30;;;;;;;;;;5052859;28;20472;-86
2021/06/12 13:42:15;;;;;;;10.48;2.30;;;;;;;;;;5053724;28;20021;-84
2021/06/12 13:44:45;;;;;;;6.32;1.98;;;;;;;;;;5054931;28;20028;-85
2021/06/12 13:47:11;;;;;;;5.30;1.98;;;;;;;;;;5053829;28;20219;-85
2021/06/12 13:49:36;;;;;;;5.70;2.80;;;;;;;;;;5052158;28;20103;-85
2021/06/12 13:52:01;;;;;;;5.78;2.70;;;;;;;;;;5053267;28;20024;-84
2021/06/12 13:54:27;;;;;;;5.05;2.33;;;;;;;;;;5052582;28;20586;-85
2021/06/12 13:56:52;;;;;;;9.23;2.78;;;;;;;;;;5052977;28;20021;-85
2021/06/12 13:59:19;;;;;;;11.68;3.13;;;;;;;;;;5053651;28;20017;-85
2021/06/12 14:01:44;;;;;;;6.65;2.55;;;;;;;;;;5054940;28;20062;-84
2021/06/12 14:04:09;;;;;;;8.77;3.58;;;;;;;;;;5053753;28;20465;-85
2021/06/12 14:06:35;;;;;;;6.07;2.90;;;;;;;;;;5054850;28;20016;-86
2021/06/12 14:09:00;;;;;;;7.05;2.80;;;;;;;;;;5053487;28;20024;-85
2021/06/12 14:11:25;;;;;;;8.27;2.75;;;;;;;;;;5053326;28;20028;-85
2021/06/12 14:13:50;;;;;;;7.32;3.15;;;;;;;;;;5054852;28;20377;-85
2021/06/12 14:16:16;;;;;;;8.40;3.15;;;;;;;;;;5053239;28;20028;-85
2021/06/12 14:18:41;;;;;;;7.20;3.28;;;;;;;;;;5052271;28;20059;-85
2021/06/12 14:21:06;;;;;;;7.68;2.90;;;;;;;;;;5054736;28;20103;-85
2021/06/12 14:23:32;;;;;;;7.30;3.03;;;;;;;;;;5054563;28;20119;-85
2021/06/12 14:25:58;;;;;;;6.75;2.80;;;;;;;;;;5053221;28;20028;-85
2021/06/12 14:28:25;;;;;;;8.10;2.88;;;;;;;;;;5054223;28;20033;-85
2021/06/12 14:30:51;;;;;;;7.30;2.65;;;;;;;;;;5052384;28;20027;-85
2021/06/12 14:33:16;;;;;;;8.23;3.45;;;;;;;;;;5052836;28;20104;-86